South Newton, Pennsylvania
Current Conditions -  °F | °C
As of 6:53 AM on Friday 24 Oct 2014 (Local Time) from KTHV Reporting Station
Clear Clear  
Wind Chill: 54°   Ceiling: Unl
Heat Index: 54°   Visibility: 10mi
Dew Point: 43°   Wind: 10mph
Humidity: 66%   Direction: 290°WNW
Pressure: 29.94"   Gusts: NA
Location:  40.0726°N, 77.4006°W
Report Text: KTHV 241053Z AUTO 29009KT 10SM CLR 12/06 A2994 RMK AO2 SLP139 T01220061
Loading
Personal Weather Stations






























Interactive Weather Map
Tropical Storm Tracking
New forecast layout! Learn more

10-Day Weather Forecast

Advertisements
Track Severe Weather on mobile